Time;durP1;ratioP1;P1;durP2;ratioP2;P2;SDS_P1;SDS_P2;PMS_P1;PMS_P2;Temp;Humidity;BMP_temperature;BMP_pressure;BME280_temperature;BME280_humidity;BME280_pressure;Samples;Min_cycle;Max_cycle;Signal;HPM_P1;HPM_P2
2023/04/04 00:00:14;;;;;;;3.97;1.52;;;3.70;99.90;;;;;;4957034;28;20054;-75
2023/04/04 00:02:40;;;;;;;4.03;1.40;;;3.50;99.90;;;;;;4958121;28;20050;-74
2023/04/04 00:05:07;;;;;;;3.25;1.77;;;3.80;99.90;;;;;;4974376;28;20051;-75
2023/04/04 00:07:33;;;;;;;5.55;1.80;;;3.40;99.90;;;;;;4978864;28;20485;-74
2023/04/04 00:09:59;;;;;;;3.88;1.90;;;3.90;99.90;;;;;;4960791;28;20055;-74
2023/04/04 00:12:25;;;;;;;5.13;1.73;;;3.80;99.90;;;;;;4960735;28;20150;-74
2023/04/04 00:14:51;;;;;;;3.97;2.10;;;3.40;99.90;;;;;;4961084;28;20069;-75
2023/04/04 00:17:16;;;;;;;5.32;2.20;;;3.60;99.90;;;;;;4945633;28;20051;-74
2023/04/04 00:19:42;;;;;;;2.15;1.52;;;3.70;99.90;;;;;;4960564;28;20481;-75
2023/04/04 00:22:08;;;;;;;5.43;1.60;;;3.90;99.90;;;;;;4977677;28;20049;-75
2023/04/04 00:24:34;;;;;;;3.25;2.22;;;3.40;99.90;;;;;;4977827;28;20133;-74
2023/04/04 00:27:00;;;;;;;4.32;1.60;;;3.30;99.90;;;;;;4977772;28;20089;-74
2023/04/04 00:29:26;;;;;;;4.53;2.22;;;3.20;99.90;;;;;;4944681;28;20109;-75
2023/04/04 00:31:52;;;;;;;3.20;1.70;;;4.20;99.90;;;;;;4977675;28;20077;-74
2023/04/04 00:34:17;;;;;;;4.55;1.95;;;3.50;99.90;;;;;;4977674;28;20143;-74
2023/04/04 00:36:43;;;;;;;3.30;1.75;;;3.60;99.90;;;;;;4977615;28;20094;-74
2023/04/04 00:39:09;;;;;;;5.03;1.98;;;3.00;99.90;;;;;;4961165;28;20046;-75
2023/04/04 00:41:35;;;;;;;3.80;1.60;;;3.70;99.90;;;;;;4978075;28;20055;-74
2023/04/04 00:44:01;;;;;;;3.90;1.83;;;3.00;99.90;;;;;;4977409;28;20389;-74
2023/04/04 00:46:28;;;;;;;4.00;1.50;;;3.20;99.90;;;;;;4977494;28;20113;-74
2023/04/04 00:48:54;;;;;;;3.55;1.73;;;3.50;99.90;;;;;;4977327;28;20086;-74
2023/04/04 00:51:20;;;;;;;3.38;1.50;;;3.50;99.90;;;;;;4977032;28;20054;-74
2023/04/04 00:53:47;;;;;;;3.95;1.50;;;3.50;99.90;;;;;;4959962;28;20047;-74
2023/04/04 00:56:14;;;;;;;4.32;1.50;;;3.10;99.90;;;;;;4978386;28;20077;-74
2023/04/04 00:58:41;;;;;;;3.88;1.60;;;2.90;99.90;;;;;;4977133;28;20054;-74
2023/04/04 01:01:09;;;;;;;2.10;1.10;;;3.10;99.90;;;;;;4977903;28;20055;-74
2023/04/04 01:03:36;;;;;;;4.13;2.05;;;3.10;99.90;;;;;;4977633;28;20047;-74
2023/04/04 01:06:01;;;;;;;4.25;1.50;;;3.00;99.90;;;;;;4944157;28;20473;-74
2023/04/04 01:08:29;;;;;;;4.40;1.38;;;2.80;99.90;;;;;;4977004;28;20053;-74
2023/04/04 01:10:55;;;;;;;5.22;1.77;;;2.90;99.90;;;;;;4976924;28;20050;-74
2023/04/04 01:13:21;;;;;;;3.85;1.38;;;3.30;99.90;;;;;;4977724;28;20035;-74
2023/04/04 01:15:47;;;;;;;3.92;1.30;;;3.30;99.90;;;;;;4976897;28;20086;-74
2023/04/04 01:18:17;;;;;;;3.38;1.58;;;3.60;99.90;;;;;;4959344;28;20046;-74
2023/04/04 01:20:59;;;;;;;3.20;1.40;;;2.90;99.90;;;;;;4960036;28;20051;-74
2023/04/04 01:23:43;;;;;;;4.55;1.20;;;3.10;99.90;;;;;;4976695;28;20046;-74
2023/04/04 01:26:09;;;;;;;4.25;1.70;;;2.50;99.90;;;;;;4977243;28;20047;-74
2023/04/04 01:28:35;;;;;;;4.72;1.55;;;2.40;99.90;;;;;;4977159;28;20478;-75
2023/04/04 01:31:05;;;;;;;3.40;1.65;;;2.60;99.90;;;;;;4976620;28;20055;-74
2023/04/04 01:33:42;;;;;;;2.92;1.30;;;2.80;99.90;;;;;;4976708;28;20050;-74
2023/04/04 01:36:30;;;;;;;2.60;1.25;;;2.50;99.90;;;;;;4976282;28;20547;-74
2023/04/04 01:39:21;;;;;;;2.88;1.23;;;2.50;99.90;;;;;;4977053;28;20055;-74
2023/04/04 01:41:48;;;;;;;3.08;1.48;;;2.40;99.90;;;;;;4976628;28;20046;-74
2023/04/04 01:44:16;;;;;;;5.97;1.70;;;2.60;99.90;;;;;;4976454;28;20043;-74
2023/04/04 01:46:42;;;;;;;4.25;1.30;;;2.80;99.90;;;;;;4976316;28;20085;-74
2023/04/04 01:49:07;;;;;;;6.35;1.35;;;2.90;99.90;;;;;;4976236;28;20055;-74
2023/04/04 01:51:33;;;;;;;4.28;1.40;;;2.80;99.90;;;;;;4976181;28;20046;-74
2023/04/04 01:53:59;;;;;;;2.85;1.27;;;2.60;99.90;;;;;;4976521;28;20070;-74
2023/04/04 01:56:25;;;;;;;2.50;1.33;;;2.50;99.90;;;;;;4959488;28;20133;-74
2023/04/04 01:58:52;;;;;;;3.50;1.42;;;2.10;99.90;;;;;;4976802;28;20042;-74
2023/04/04 02:01:18;;;;;;;2.33;1.30;;;2.30;99.90;;;;;;4975980;28;20409;-74
2023/04/04 02:03:44;;;;;;;2.63;1.63;;;2.20;99.90;;;;;;4958359;28;20054;-74
2023/04/04 02:06:10;;;;;;;4.25;1.48;;;2.20;99.90;;;;;;4976196;28;20047;-74
2023/04/04 02:08:37;;;;;;;4.18;1.50;;;2.30;99.90;;;;;;4976167;28;20054;-74
2023/04/04 02:11:03;;;;;;;3.25;1.30;;;2.90;99.90;;;;;;4975953;28;20068;-74
2023/04/04 02:13:28;;;;;;;3.22;1.35;;;2.00;99.90;;;;;;4975917;28;20459;-74
2023/04/04 02:15:54;;;;;;;3.00;1.25;;;2.90;99.90;;;;;;4958454;28;20046;-74
2023/04/04 02:18:20;;;;;;;2.70;1.50;;;2.80;99.90;;;;;;4975504;28;20053;-74
2023/04/04 02:20:45;;;;;;;3.22;1.60;;;2.20;99.90;;;;;;4958673;28;20054;-74
2023/04/04 02:23:11;;;;;;;3.55;1.48;;;2.10;99.90;;;;;;4976060;28;20050;-74
2023/04/04 02:25:37;;;;;;;1.80;1.10;;;2.00;99.90;;;;;;4976133;28;20051;-74
2023/04/04 02:28:03;;;;;;;2.65;1.23;;;2.20;99.90;;;;;;4976010;28;20043;-74
2023/04/04 02:30:28;;;;;;;4.32;1.75;;;1.80;99.90;;;;;;4975343;28;20042;-74
2023/04/04 02:32:58;;;;;;;2.25;1.20;;;2.20;99.90;;;;;;4975180;28;20051;-74
2023/04/04 02:35:23;;;;;;;3.35;1.70;;;1.80;99.90;;;;;;4975985;28;20473;-73
2023/04/04 02:37:49;;;;;;;2.97;1.30;;;1.80;99.90;;;;;;4975443;28;20133;-74
2023/04/04 02:40:15;;;;;;;3.22;1.63;;;2.40;99.90;;;;;;4975402;28;20050;-74
2023/04/04 02:42:44;;;;;;;2.28;1.10;;;1.70;99.90;;;;;;4975793;28;20039;-74
2023/04/04 02:45:10;;;;;;;3.63;1.42;;;1.60;99.90;;;;;;4958189;28;20043;-74
2023/04/04 02:47:37;;;;;;;2.95;1.52;;;1.90;99.90;;;;;;4975825;28;20059;-73
2023/04/04 02:50:02;;;;;;;2.95;1.33;;;1.80;99.90;;;;;;4975816;28;20137;-74
2023/04/04 02:52:28;;;;;;;2.47;1.35;;;1.60;99.90;;;;;;4976012;28;20129;-74
2023/04/04 02:54:54;;;;;;;3.08;1.30;;;2.10;99.90;;;;;;4974823;28;20528;-74
2023/04/04 02:57:20;;;;;;;2.63;1.20;;;2.20;99.90;;;;;;4958085;28;20055;-74
2023/04/04 02:59:46;;;;;;;2.15;1.30;;;1.80;99.90;;;;;;4957661;28;20185;-73
2023/04/04 03:02:12;;;;;;;6.18;1.75;;;1.90;99.90;;;;;;4957595;28;20120;-74
2023/04/04 03:04:37;;;;;;;3.90;1.40;;;1.50;99.90;;;;;;4975566;28;20106;-74
2023/04/04 03:07:03;;;;;;;5.82;1.17;;;1.60;99.90;;;;;;4975689;28;20043;-74
2023/04/04 03:09:29;;;;;;;2.65;1.17;;;1.40;99.90;;;;;;4974925;28;20061;-74
2023/04/04 03:11:55;;;;;;;5.05;1.58;;;1.60;99.90;;;;;;4958123;28;20129;-74
2023/04/04 03:14:21;;;;;;;4.15;0.90;;;1.70;99.90;;;;;;4957797;28;20058;-73
2023/04/04 03:16:51;;;;;;;4.30;1.40;;;1.60;99.90;;;;;;4957851;28;20051;-74
2023/04/04 03:19:16;;;;;;;2.67;1.17;;;1.40;99.90;;;;;;4974862;28;20054;-74
2023/04/04 03:21:42;;;;;;;2.20;1.17;;;1.70;99.90;;;;;;4957560;28;20053;-74
2023/04/04 03:24:08;;;;;;;2.60;1.20;;;1.50;99.90;;;;;;4957531;28;20505;-74
2023/04/04 03:26:33;;;;;;;4.50;1.20;;;1.50;99.90;;;;;;4941835;28;20397;-74
2023/04/04 03:28:59;;;;;;;1.70;1.20;;;2.10;99.90;;;;;;4974640;28;20047;-74
2023/04/04 03:31:25;;;;;;;1.65;1.10;;;1.40;99.90;;;;;;4974729;28;20047;-74
2023/04/04 03:33:51;;;;;;;3.10;1.30;;;1.20;99.90;;;;;;4974697;28;20101;-74
2023/04/04 03:36:16;;;;;;;2.65;1.30;;;1.50;99.90;;;;;;4974624;28;20090;-74
2023/04/04 03:38:42;;;;;;;2.85;1.30;;;1.80;99.90;;;;;;4975171;28;20054;-74
2023/04/04 03:41:08;;;;;;;2.30;1.27;;;1.30;99.90;;;;;;4976267;28;20173;-74
2023/04/04 03:43:34;;;;;;;1.65;1.10;;;1.30;99.90;;;;;;4961453;28;20185;-74
2023/04/04 03:46:03;;;;;;;2.85;1.20;;;1.40;99.90;;;;;;4978524;28;20050;-73
2023/04/04 03:48:29;;;;;;;2.45;1.30;;;1.50;99.90;;;;;;4961355;28;20142;-74
2023/04/04 03:50:56;;;;;;;3.78;1.30;;;1.70;99.90;;;;;;4961301;28;20061;-73
2023/04/04 03:53:23;;;;;;;3.17;1.20;;;0.90;99.90;;;;;;4978956;28;20470;-74
2023/04/04 03:55:49;;;;;;;4.15;1.80;;;1.50;99.90;;;;;;4977174;28;20063;-74
2023/04/04 03:58:15;;;;;;;4.03;1.30;;;1.00;99.90;;;;;;4977551;28;20058;-73
2023/04/04 04:00:40;;;;;;;4.10;1.40;;;1.50;99.90;;;;;;4960559;28;20042;-73
2023/04/04 04:03:06;;;;;;;3.50;1.45;;;1.50;99.90;;;;;;4977070;28;20075;-74
2023/04/04 04:05:32;;;;;;;3.65;1.30;;;1.80;99.90;;;;;;4977569;28;20042;-74
2023/04/04 04:07:57;;;;;;;2.95;1.40;;;1.80;99.90;;;;;;4959947;28;20047;-74
2023/04/04 04:10:23;;;;;;;4.35;1.50;;;1.50;99.90;;;;;;4981913;28;20054;-73
2023/04/04 04:12:49;;;;;;;3.88;1.52;;;1.20;99.90;;;;;;4960742;28;20054;-74
2023/04/04 04:15:14;;;;;;;3.30;1.30;;;1.70;99.90;;;;;;4977034;28;20043;-73
2023/04/04 04:17:40;;;;;;;3.05;1.55;;;1.20;99.90;;;;;;4944566;28;20079;-74
2023/04/04 04:20:08;;;;;;;4.10;1.70;;;0.90;99.90;;;;;;4976712;28;20057;-74
2023/04/04 04:22:34;;;;;;;2.40;1.20;;;1.00;99.90;;;;;;4959390;28;20042;-74
2023/04/04 04:25:00;;;;;;;4.72;1.65;;;1.00;99.90;;;;;;4976609;28;20047;-73
2023/04/04 04:27:26;;;;;;;2.22;1.23;;;1.00;99.90;;;;;;4976654;28;20284;-74
2023/04/04 04:29:52;;;;;;;2.75;1.58;;;1.00;99.90;;;;;;4976490;28;20054;-74
2023/04/04 04:32:18;;;;;;;2.75;1.63;;;1.50;99.90;;;;;;4959856;28;20051;-73
2023/04/04 04:34:44;;;;;;;5.18;2.05;;;1.40;99.90;;;;;;4977084;28;20058;-74
2023/04/04 04:37:09;;;;;;;3.63;1.50;;;1.00;99.90;;;;;;4976394;28;20051;-73
2023/04/04 04:39:35;;;;;;;3.72;1.80;;;1.10;99.90;;;;;;4977201;28;20054;-74
2023/04/04 04:42:02;;;;;;;5.38;1.63;;;1.50;99.90;;;;;;4976635;28;20047;-74
2023/04/04 04:44:27;;;;;;;2.42;1.67;;;0.80;99.90;;;;;;4979005;28;20053;-72
2023/04/04 04:46:53;;;;;;;4.20;2.10;;;1.30;99.90;;;;;;4982269;28;20066;-74
2023/04/04 04:49:19;;;;;;;3.00;1.58;;;0.80;99.90;;;;;;4977100;28;20061;-74
2023/04/04 04:51:45;;;;;;;5.47;1.30;;;1.10;99.90;;;;;;4976133;28;20452;-73
2023/04/04 04:54:10;;;;;;;3.70;1.40;;;0.90;99.90;;;;;;4937407;28;1116213;-73
2023/04/04 04:56:36;;;;;;;2.67;1.40;;;1.50;99.90;;;;;;4977295;28;20061;-74
2023/04/04 04:59:02;;;;;;;4.85;1.73;;;0.80;99.90;;;;;;4959883;28;20050;-74
2023/04/04 05:01:28;;;;;;;2.75;1.17;;;0.70;99.90;;;;;;4977208;28;20046;-74
2023/04/04 05:03:54;;;;;;;3.20;1.52;;;1.70;99.90;;;;;;4959877;28;20046;-73
2023/04/04 05:06:20;;;;;;;6.85;1.25;;;0.70;99.90;;;;;;4977047;28;20432;-74
2023/04/04 05:08:46;;;;;;;4.43;1.75;;;0.80;99.90;;;;;;4977102;28;20054;-74
2023/04/04 05:11:11;;;;;;;3.35;1.80;;;0.70;99.90;;;;;;4959909;28;20050;-74
2023/04/04 05:13:37;;;;;;;3.08;1.38;;;1.40;99.90;;;;;;4959935;28;20093;-74
2023/04/04 05:16:03;;;;;;;5.78;1.90;;;1.70;99.90;;;;;;4959881;28;20086;-74
2023/04/04 05:18:29;;;;;;;5.47;2.10;;;1.10;99.90;;;;;;4976909;28;20057;-74
2023/04/04 05:20:55;;;;;;;4.43;2.08;;;0.50;99.90;;;;;;4977365;28;20403;-74
2023/04/04 05:23:21;;;;;;;3.13;1.75;;;0.80;99.90;;;;;;4976863;28;20089;-74
2023/04/04 05:25:52;;;;;;;6.00;1.90;;;1.90;99.90;;;;;;4977520;28;20102;-74
2023/04/04 05:28:18;;;;;;;3.75;2.08;;;0.90;99.90;;;;;;4976644;28;20129;-73
2023/04/04 05:30:44;;;;;;;5.95;2.20;;;1.30;99.90;;;;;;4976560;28;20051;-74
2023/04/04 05:33:10;;;;;;;3.95;2.03;;;1.30;99.90;;;;;;4976583;28;20042;-74
2023/04/04 05:35:36;;;;;;;5.43;2.58;;;1.20;99.90;;;;;;4976592;28;20054;-74
2023/04/04 05:38:02;;;;;;;3.20;1.80;;;0.80;99.90;;;;;;4977060;28;20389;-74
2023/04/04 05:40:28;;;;;;;3.83;1.98;;;0.90;99.90;;;;;;4959234;28;20162;-74
2023/04/04 05:42:54;;;;;;;4.88;1.83;;;0.90;99.90;;;;;;4976281;28;20050;-74
2023/04/04 05:45:20;;;;;;;3.45;1.90;;;1.30;99.90;;;;;;4977126;28;20182;-74
2023/04/04 05:47:45;;;;;;;3.70;1.90;;;0.70;99.90;;;;;;4943240;28;20145;-74
2023/04/04 05:50:11;;;;;;;4.65;1.90;;;0.80;99.90;;;;;;4976312;28;20079;-74
2023/04/04 05:52:37;;;;;;;4.55;2.13;;;0.60;99.90;;;;;;4958981;28;20560;-74
2023/04/04 05:55:03;;;;;;;4.63;2.20;;;1.40;99.90;;;;;;4942866;28;20047;-73
2023/04/04 05:57:29;;;;;;;5.60;2.28;;;0.80;99.90;;;;;;4977016;28;20055;-73
2023/04/04 05:59:54;;;;;;;2.38;1.55;;;1.50;99.90;;;;;;4959506;28;20445;-73
2023/04/04 06:02:21;;;;;;;5.68;2.17;;;1.40;99.90;;;;;;4975899;28;20114;-73
2023/04/04 06:04:47;;;;;;;4.78;1.90;;;1.90;99.90;;;;;;4975160;28;20141;-74
2023/04/04 06:07:12;;;;;;;6.13;1.60;;;1.00;99.90;;;;;;4958666;28;20055;-73
2023/04/04 06:09:39;;;;;;;4.07;1.65;;;1.00;99.90;;;;;;4958959;28;20051;-73
2023/04/04 06:12:05;;;;;;;5.32;2.08;;;1.10;99.90;;;;;;4975889;28;20055;-74
2023/04/04 06:14:31;;;;;;;4.10;1.58;;;1.00;99.90;;;;;;4976278;28;20093;-73
2023/04/04 06:16:57;;;;;;;4.97;1.83;;;1.70;99.90;;;;;;4959025;28;20532;-74
2023/04/04 06:19:23;;;;;;;3.55;1.70;;;1.10;99.90;;;;;;4975747;28;20050;-73
2023/04/04 06:21:48;;;;;;;5.20;2.22;;;1.50;99.90;;;;;;4958653;28;20050;-74
2023/04/04 06:24:14;;;;;;;3.25;1.67;;;1.20;99.90;;;;;;4975519;28;20039;-73
2023/04/04 06:26:41;;;;;;;4.05;1.80;;;1.80;99.90;;;;;;4958538;28;20055;-73
2023/04/04 06:29:07;;;;;;;4.00;1.77;;;1.30;99.90;;;;;;4958439;28;20050;-74
2023/04/04 06:31:32;;;;;;;4.30;1.75;;;1.40;99.90;;;;;;4976303;28;20043;-74
2023/04/04 06:34:00;;;;;;;4.20;1.90;;;2.10;99.90;;;;;;4975515;28;20074;-74
2023/04/04 06:36:26;;;;;;;2.97;1.67;;;2.30;99.90;;;;;;4975953;28;20046;-74
2023/04/04 06:38:51;;;;;;;3.63;2.00;;;1.90;99.90;;;;;;4975412;28;20046;-74
2023/04/04 06:41:17;;;;;;;3.95;2.00;;;2.00;99.90;;;;;;4942981;28;20469;-74
2023/04/04 06:43:45;;;;;;;4.38;1.98;;;2.30;99.90;;;;;;4975718;28;20528;-74
2023/04/04 06:46:11;;;;;;;5.40;2.38;;;1.90;99.90;;;;;;4976005;28;20086;-73
2023/04/04 06:48:37;;;;;;;5.82;2.22;;;2.30;99.90;;;;;;4975176;28;20493;-74
2023/04/04 06:51:07;;;;;;;3.03;1.80;;;2.60;99.90;;;;;;4957874;28;20055;-74
2023/04/04 06:53:33;;;;;;;7.43;2.10;;;2.00;99.90;;;;;;4974754;28;20150;-74
2023/04/04 06:55:59;;;;;;;3.25;1.45;;;2.40;99.90;;;;;;4957349;28;20069;-74
2023/04/04 06:58:25;;;;;;;4.47;2.10;;;2.40;99.90;;;;;;4974694;28;20481;-74
2023/04/04 07:00:51;;;;;;;5.55;2.50;;;2.00;99.90;;;;;;4974946;28;20130;-74
2023/04/04 07:03:16;;;;;;;5.13;2.03;;;3.10;99.90;;;;;;4975009;28;20133;-74
2023/04/04 07:05:42;;;;;;;4.07;1.73;;;2.90;99.90;;;;;;4975458;28;20057;-74
2023/04/04 07:08:08;;;;;;;3.78;1.27;;;2.90;99.90;;;;;;4958625;28;20059;-75
2023/04/04 07:10:34;;;;;;;4.85;1.52;;;2.90;99.90;;;;;;4957561;28;20130;-74
2023/04/04 07:13:00;;;;;;;3.72;1.25;;;2.70;99.90;;;;;;4958595;28;20129;-75
2023/04/04 07:15:29;;;;;;;4.18;1.38;;;3.00;99.90;;;;;;4958429;28;20061;-75
2023/04/04 07:17:55;;;;;;;4.10;1.20;;;2.80;99.90;;;;;;4957677;28;20046;-74
2023/04/04 07:20:21;;;;;;;3.30;1.40;;;3.00;99.90;;;;;;4957726;28;20130;-74
2023/04/04 07:22:48;;;;;;;4.50;1.35;;;3.10;99.90;;;;;;4975179;28;20133;-75
2023/04/04 07:25:13;;;;;;;2.75;0.90;;;3.70;99.90;;;;;;4974686;28;20050;-75
2023/04/04 07:27:42;;;;;;;2.65;1.10;;;3.00;99.90;;;;;;4958188;28;20091;-74
2023/04/04 07:30:08;;;;;;;2.58;1.00;;;2.90;99.90;;;;;;4974699;28;20043;-74
2023/04/04 07:32:34;;;;;;;3.90;1.00;;;2.90;99.90;;;;;;4958034;28;20042;-74
2023/04/04 07:35:00;;;;;;;3.17;1.17;;;3.40;99.90;;;;;;4974667;28;20073;-73
2023/04/04 07:37:26;;;;;;;7.10;1.90;;;2.90;99.90;;;;;;4974752;28;20576;-73
2023/04/04 07:39:52;;;;;;;3.10;1.10;;;3.30;99.90;;;;;;4974999;28;20388;-73
2023/04/04 07:42:24;;;;;;;3.28;1.38;;;3.80;99.90;;;;;;4957857;28;20473;-73
2023/04/04 07:44:53;;;;;;;5.15;1.65;;;3.80;99.90;;;;;;4974457;28;20527;-74
2023/04/04 07:47:19;;;;;;;5.40;1.77;;;3.30;99.90;;;;;;4974567;28;20047;-76
2023/04/04 07:49:45;;;;;;;3.58;1.10;;;3.50;99.90;;;;;;4975408;28;20055;-73
2023/04/04 07:52:11;;;;;;;3.47;1.15;;;3.30;99.90;;;;;;4974845;28;20547;-74
2023/04/04 07:54:39;;;;;;;4.28;1.00;;;4.30;99.90;;;;;;4974539;28;20114;-73
2023/04/04 07:57:05;;;;;;;3.00;0.95;;;4.00;99.90;;;;;;4974623;28;20147;-74
2023/04/04 07:59:31;;;;;;;2.95;0.95;;;3.80;99.90;;;;;;4974466;28;20047;-74
2023/04/04 08:01:57;;;;;;;1.65;0.73;;;3.70;99.90;;;;;;4975281;28;20118;-73
2023/04/04 08:04:23;;;;;;;3.92;1.02;;;3.50;99.90;;;;;;4974983;28;20465;-73
2023/04/04 08:06:49;;;;;;;3.72;1.70;;;3.50;99.90;;;;;;4974650;28;20396;-75
2023/04/04 08:09:15;;;;;;;2.45;0.90;;;3.70;99.90;;;;;;4974432;28;20046;-75
2023/04/04 08:11:40;;;;;;;3.05;0.82;;;3.60;99.90;;;;;;4957379;28;20436;-76
2023/04/04 08:14:06;;;;;;;3.28;0.57;;;3.60;99.90;;;;;;4974404;28;20046;-76
2023/04/04 08:16:32;;;;;;;4.13;1.35;;;3.80;99.90;;;;;;4974431;28;20047;-76
2023/04/04 08:18:59;;;;;;;2.35;0.70;;;4.20;99.90;;;;;;4974924;28;20051;-76
2023/04/04 08:21:25;;;;;;;4.40;0.80;;;3.80;99.90;;;;;;4974337;28;20054;-76
2023/04/04 08:23:50;;;;;;;2.97;0.70;;;4.90;99.90;;;;;;4974157;28;20043;-76
2023/04/04 08:26:16;;;;;;;2.53;0.77;;;4.20;99.90;;;;;;4957112;28;20073;-76
2023/04/04 08:28:42;;;;;;;2.33;0.80;;;4.10;99.90;;;;;;4977821;28;20051;-76
2023/04/04 08:31:09;;;;;;;2.67;0.80;;;4.00;99.90;;;;;;4960566;28;20088;-76
2023/04/04 08:33:34;;;;;;;3.83;1.00;;;3.90;99.90;;;;;;4977759;28;20085;-76
2023/04/04 08:36:00;;;;;;;2.67;0.80;;;4.40;99.90;;;;;;4977978;28;20082;-76
2023/04/04 08:38:26;;;;;;;3.17;0.90;;;4.40;99.90;;;;;;4977593;28;20046;-76
2023/04/04 08:40:52;;;;;;;3.35;1.08;;;5.10;99.90;;;;;;4978075;28;20093;-77
2023/04/04 08:43:20;;;;;;;4.10;0.95;;;4.60;99.90;;;;;;4978096;28;20058;-76
2023/04/04 08:45:47;;;;;;;2.40;0.88;;;4.70;99.90;;;;;;4978190;28;20055;-77
2023/04/04 08:48:17;;;;;;;1.42;0.80;;;4.40;99.90;;;;;;4960426;28;20043;-76
2023/04/04 08:50:43;;;;;;;2.35;0.70;;;4.60;99.90;;;;;;4977485;28;20129;-77
2023/04/04 08:53:10;;;;;;;4.13;0.90;;;4.80;99.90;;;;;;4978338;28;20132;-76
2023/04/04 08:55:37;;;;;;;1.60;0.90;;;5.00;99.90;;;;;;4977395;28;20059;-76
2023/04/04 08:58:03;;;;;;;2.30;0.90;;;4.60;99.90;;;;;;4977423;28;20063;-76
2023/04/04 09:00:29;;;;;;;3.45;0.95;;;4.50;99.90;;;;;;4977313;28;20079;-75
2023/04/04 09:03:04;;;;;;;3.53;0.93;;;5.20;99.90;;;;;;4977260;28;20094;-76
2023/04/04 09:05:29;;;;;;;2.75;1.00;;;4.90;99.90;;;;;;4960605;28;20066;-76
2023/04/04 09:07:56;;;;;;;1.88;0.93;;;5.30;99.90;;;;;;4961076;28;20416;-77
2023/04/04 09:10:22;;;;;;;1.92;0.70;;;4.70;99.90;;;;;;4981857;28;20058;-77
2023/04/04 09:12:50;;;;;;;3.75;0.85;;;5.10;99.90;;;;;;4984759;28;20062;-76
2023/04/04 09:15:16;;;;;;;2.38;0.65;;;5.20;99.90;;;;;;4985052;28;20050;-75
2023/04/04 09:17:42;;;;;;;3.25;0.85;;;5.00;99.90;;;;;;4963878;28;20563;-75
2023/04/04 09:20:37;;;;;;;1.83;0.60;;;5.20;99.90;;;;;;4980371;28;20098;-76
2023/04/04 09:23:22;;;;;;;3.47;1.00;;;5.20;99.90;;;;;;4962971;28;20086;-76
2023/04/04 09:25:49;;;;;;;1.30;0.70;;;5.30;99.90;;;;;;4960133;28;20133;-76
2023/04/04 09:28:15;;;;;;;1.00;0.60;;;5.10;99.90;;;;;;4977557;28;20050;-76
2023/04/04 09:30:43;;;;;;;3.10;0.60;;;5.40;99.90;;;;;;4959623;28;20053;-76
2023/04/04 09:33:11;;;;;;;2.00;0.68;;;5.20;99.90;;;;;;4977258;28;20381;-76
2023/04/04 09:35:40;;;;;;;1.83;0.70;;;5.80;99.90;;;;;;4976576;28;20047;-76
2023/04/04 09:38:06;;;;;;;3.17;0.70;;;5.40;99.90;;;;;;4975517;28;20054;-77
2023/04/04 09:40:36;;;;;;;2.17;0.68;;;5.60;99.90;;;;;;4977344;28;20073;-75
2023/04/04 09:43:05;;;;;;;1.95;0.70;;;5.40;99.90;;;;;;4943535;28;20126;-75
2023/04/04 09:45:33;;;;;;;3.47;0.65;;;5.80;99.90;;;;;;4976915;28;20046;-76
2023/04/04 09:47:59;;;;;;;1.38;0.75;;;5.90;99.90;;;;;;4976446;28;20054;-75
2023/04/04 09:50:27;;;;;;;3.60;0.80;;;5.90;99.90;;;;;;4979160;28;20047;-74
2023/04/04 09:52:57;;;;;;;2.65;1.13;;;5.90;99.90;;;;;;4964660;28;20060;-73
2023/04/04 09:55:33;;;;;;;2.88;0.75;;;6.00;99.90;;;;;;4980513;28;20417;-74
2023/04/04 09:58:14;;;;;;;4.57;1.55;;;5.70;99.90;;;;;;4960020;28;20384;-74
2023/04/04 10:00:43;;;;;;;2.90;0.80;;;5.90;99.90;;;;;;4976167;28;20042;-74
2023/04/04 10:03:12;;;;;;;2.35;0.80;;;6.10;99.90;;;;;;4959259;28;20047;-75
2023/04/04 10:05:38;;;;;;;2.45;0.80;;;5.90;99.90;;;;;;4976096;28;20053;-75
2023/04/04 10:08:14;;;;;;;1.60;0.90;;;6.00;99.90;;;;;;4976360;28;20121;-75
2023/04/04 10:10:50;;;;;;;3.53;0.70;;;6.20;99.90;;;;;;4976021;28;20051;-75
2023/04/04 10:13:23;;;;;;;1.20;0.70;;;6.40;99.90;;;;;;4975971;28;20117;-74
2023/04/04 10:15:51;;;;;;;2.58;0.73;;;6.50;99.90;;;;;;4975459;28;20497;-75
2023/04/04 10:18:20;;;;;;;4.28;0.70;;;6.30;99.90;;;;;;4975642;28;20051;-75
2023/04/04 10:20:48;;;;;;;1.60;0.70;;;6.50;99.90;;;;;;4959408;28;20055;-75
2023/04/04 10:23:15;;;;;;;3.63;0.82;;;6.50;99.90;;;;;;4976373;28;20046;-75
2023/04/04 10:25:41;;;;;;;2.20;0.80;;;6.30;99.90;;;;;;4975790;28;20051;-74
2023/04/04 10:28:07;;;;;;;5.45;0.90;;;6.40;99.90;;;;;;4975511;28;20051;-75
2023/04/04 10:30:40;;;;;;;2.55;0.90;;;6.40;99.90;;;;;;4959084;28;20112;-75
2023/04/04 10:33:11;;;;;;;1.08;0.70;;;6.60;99.90;;;;;;4975570;28;20082;-75
2023/04/04 10:35:39;;;;;;;3.53;1.00;;;6.50;99.90;;;;;;4958500;28;20057;-75
2023/04/04 10:38:07;;;;;;;3.47;0.90;;;7.00;99.90;;;;;;4975409;28;20043;-73
2023/04/04 10:40:36;;;;;;;2.05;0.90;;;7.00;99.90;;;;;;4975664;28;20077;-75
2023/04/04 10:43:03;;;;;;;2.00;0.80;;;6.70;99.90;;;;;;4975280;28;20046;-75
2023/04/04 10:45:31;;;;;;;3.42;0.85;;;7.20;99.90;;;;;;4975338;28;20130;-75
2023/04/04 10:47:58;;;;;;;1.40;0.90;;;7.20;99.90;;;;;;4958187;28;20409;-75
2023/04/04 10:50:25;;;;;;;2.08;0.75;;;7.00;99.90;;;;;;4958071;28;20547;-75
2023/04/04 10:52:51;;;;;;;1.65;0.85;;;7.30;99.90;;;;;;4975204;28;20097;-74
2023/04/04 10:55:18;;;;;;;2.67;1.05;;;7.00;99.90;;;;;;4975319;28;20047;-75
2023/04/04 10:57:51;;;;;;;2.10;0.90;;;7.40;99.90;;;;;;4958117;28;20086;-75
2023/04/04 11:00:18;;;;;;;3.38;0.98;;;7.30;99.90;;;;;;4975594;28;20051;-76
2023/04/04 11:02:59;;;;;;;3.05;0.98;;;7.50;99.90;;;;;;4975021;28;20110;-76
2023/04/04 11:05:45;;;;;;;4.90;1.38;;;7.30;99.90;;;;;;4958084;28;20086;-75
2023/04/04 11:08:20;;;;;;;1.80;0.93;;;7.40;99.90;;;;;;4942946;28;20133;-75
2023/04/04 11:10:48;;;;;;;4.07;0.88;;;7.40;99.90;;;;;;4975767;28;20141;-75
2023/04/04 11:13:34;;;;;;;1.48;1.00;;;7.60;99.90;;;;;;4957940;28;20389;-75
2023/04/04 11:16:15;;;;;;;3.65;1.10;;;7.40;99.90;;;;;;4975721;28;20047;-75
2023/04/04 11:18:41;;;;;;;2.15;1.20;;;7.70;99.90;;;;;;4975343;28;20134;-76
2023/04/04 11:21:17;;;;;;;3.50;1.10;;;7.80;99.90;;;;;;4974754;28;20130;-76
2023/04/04 11:23:58;;;;;;;3.05;1.10;;;7.60;99.90;;;;;;4974713;28;20042;-75
2023/04/04 11:26:26;;;;;;;1.98;1.00;;;7.50;99.90;;;;;;4974837;28;20093;-76
2023/04/04 11:29:01;;;;;;;2.60;0.98;;;7.50;99.90;;;;;;4975850;28;20154;-76
2023/04/04 11:31:37;;;;;;;2.25;1.00;;;7.60;99.90;;;;;;4974704;28;20057;-76
2023/04/04 11:34:11;;;;;;;4.32;1.25;;;7.80;99.90;;;;;;4975527;28;20039;-76
2023/04/04 11:36:41;;;;;;;3.88;1.30;;;7.50;99.90;;;;;;4957980;28;20046;-76
2023/04/04 11:39:26;;;;;;;2.20;1.20;;;7.70;99.90;;;;;;4974694;28;20046;-76
2023/04/04 11:42:02;;;;;;;3.25;1.10;;;7.90;99.90;;;;;;4974772;28;20047;-76
2023/04/04 11:44:30;;;;;;;3.22;1.15;;;8.30;99.90;;;;;;4974703;28;20050;-76
2023/04/04 11:47:22;;;;;;;2.28;1.10;;;8.10;99.90;;;;;;4974958;28;20051;-76
2023/04/04 11:49:49;;;;;;;2.92;1.20;;;8.00;99.90;;;;;;4971126;28;20055;-76
2023/04/04 11:52:17;;;;;;;1.73;1.17;;;8.30;99.90;;;;;;4975466;28;20063;-77
2023/04/04 11:54:45;;;;;;;3.78;1.38;;;8.50;99.90;;;;;;4957152;28;20054;-76
2023/04/04 11:57:16;;;;;;;3.20;1.20;;;8.20;99.90;;;;;;4975431;28;20456;-77
2023/04/04 11:59:44;;;;;;;2.33;1.38;;;8.40;99.90;;;;;;4975466;28;20077;-77
2023/04/04 12:02:11;;;;;;;2.63;1.73;;;8.50;99.90;;;;;;4976010;28;20090;-77
2023/04/04 12:04:39;;;;;;;2.90;1.40;;;8.30;99.90;;;;;;4961550;28;20054;-77
2023/04/04 12:07:06;;;;;;;4.63;1.58;;;8.50;99.90;;;;;;4961021;28;20109;-77
2023/04/04 12:09:33;;;;;;;2.15;1.40;;;8.40;99.90;;;;;;4961152;28;20133;-76
2023/04/04 12:11:59;;;;;;;2.63;1.35;;;8.40;99.90;;;;;;4978257;28;20105;-77
2023/04/04 12:14:26;;;;;;;3.35;1.25;;;8.50;99.90;;;;;;4978153;28;20051;-76
2023/04/04 12:16:56;;;;;;;3.80;1.40;;;8.60;99.90;;;;;;4978667;28;20121;-76
2023/04/04 12:19:23;;;;;;;2.50;1.10;;;8.70;99.90;;;;;;4978591;28;20051;-76
2023/04/04 12:21:51;;;;;;;3.10;1.20;;;8.70;99.90;;;;;;4978028;28;20046;-77
2023/04/04 12:24:17;;;;;;;2.00;1.25;;;8.70;99.90;;;;;;4977895;28;20050;-78
2023/04/04 12:26:44;;;;;;;3.85;1.42;;;8.60;94.90;;;;;;4960607;28;20130;-79
2023/04/04 12:29:12;;;;;;;1.77;1.20;;;8.70;95.70;;;;;;4978004;28;20077;-80
2023/04/04 12:31:41;;;;;;;2.83;1.48;;;8.70;96.20;;;;;;4977954;28;20055;-80
2023/04/04 12:34:16;;;;;;;3.30;1.48;;;8.80;96.50;;;;;;4961809;28;20061;-82
2023/04/04 12:36:42;;;;;;;2.08;1.40;;;8.90;96.80;;;;;;4961294;28;20051;-81
2023/04/04 12:39:10;;;;;;;5.55;1.63;;;8.90;97.00;;;;;;4977782;28;20089;-84
2023/04/04 12:42:07;;;;;;;3.60;1.55;;;8.90;96.20;;;;;;4977710;28;20055;-84
2023/04/04 12:44:38;;;;;;;3.60;1.70;;;8.90;96.00;;;;;;4977168;28;20113;-83
2023/04/04 12:47:08;;;;;;;2.47;1.65;;;9.00;96.30;;;;;;4977635;28;20182;-83
2023/04/04 12:49:39;;;;;;;3.45;1.63;;;9.00;96.10;;;;;;4977561;28;20050;-83
2023/04/04 12:52:07;;;;;;;2.90;1.67;;;9.00;95.80;;;;;;4978134;28;20055;-85
2023/04/04 12:54:38;;;;;;;2.35;1.40;;;9.00;95.70;;;;;;4960276;28;20095;-81
2023/04/04 12:57:06;;;;;;;2.83;1.70;;;8.90;95.80;;;;;;4977456;28;20078;-82
2023/04/04 12:59:36;;;;;;;3.25;1.83;;;8.90;96.40;;;;;;4977912;28;20047;-83